INFORMACIÓN METAR y TAF
METAR FOR SPZO
ADDS - METARS form results

(2228 UTC 13 August 2022)
Data provider http://aviationweather.gov/metar/data/
 
METAR text: SPZO 132200Z 33007KT 300V100 9999 SCT050 18/M02 Q1028 NOSIG RMK TX23.0 BIRD HAZARD RWY 10/28 PP000
Conditions at: SPZO (CUZCO/VELAZCO AS, PE) observed 2200 UTC 13 August 2022
Temperature: 18.0°C (64°F)
Dewpoint: -2.0°C (28°F) [RH = 26%]
Pressure (altimeter): 30.35 inches Hg (1028.0 mb)
Winds: from the NNW (330 degrees) at 8 MPH (7 knots; 3.6 m/s)
Visibility: 6 or more miles (10+ km)
Ceiling: at least 12,000 feet AGL
Clouds: scattered clouds at 5000 feet AGL
Weather: no significant weather observed at this time

METAR text: SPZO 132130Z 02009KT 320V100 9999 SCT050 18/M01 Q1028 NOSIG RMK BIRD HAZARD RWY 10/28
Conditions at: SPZO (CUZCO/VELAZCO AS, PE) observed 2130 UTC 13 August 2022
Temperature: 18.0°C (64°F)
Dewpoint: -1.0°C (30°F) [RH = 28%]
Pressure (altimeter): 30.35 inches Hg (1028.0 mb)
Winds: from the NNE (20 degrees) at 10 MPH (9 knots; 4.6 m/s)
Visibility: 6 or more miles (10+ km)
Ceiling: at least 12,000 feet AGL
Clouds: scattered clouds at 5000 feet AGL
Weather: no significant weather observed at this time

Forecast for: SPZO (CUZCO/VELAZCO AS, PE)
Text: TAF SPZO 131708Z 1318/1418 09001KT 9999 FEW050 TX22/1319Z TN02/1411Z
Forecast period: 1800 UTC 13 August 2022 to 0100 UTC 14 August 2022
Forecast type: FROM: standard forecast or significant change
Winds: from the E (90 degrees) at 1 MPH (1 knots; 0.5 m/s)
Visibility: 6 or more miles (10+ km)
Ceiling: at least 12,000 feet AGL
Clouds: few clouds at 5000 feet AGL
Weather: no significant weather forecast for this period
Text: TEMPO 1318/1323 36015KT
Forecast period: 1800 to 2300 UTC 13 August 2022
Forecast type: TEMPORARY: The following changes expected for less than half the time period
Winds: from the N (360 degrees) at 17 MPH (15 knots; 7.7 m/s)
Visibility: missing
Ceiling: unknown
Clouds: missing
Weather: no significant weather forecast for this period
Text: FM140100 28006KT 9999 NSC
Forecast period: 0100 to 1800 UTC 14 August 2022
Forecast type: FROM: standard forecast or significant change
Winds: from the W (280 degrees) at 7 MPH (6 knots; 3.1 m/s)
Visibility: 6 or more miles (10+ km)
Ceiling: unknown
Clouds: missing
Weather: no significant weather forecast for this period

 MAPA DE AEROPUERTO

 INFORMACIÓN DE PISTA